Time;durP1;ratioP1;P1;durP2;ratioP2;P2;SDS_P1;SDS_P2;PMS_P1;PMS_P2;Temp;Humidity;BMP_temperature;BMP_pressure;BME280_temperature;BME280_humidity;BME280_pressure;Samples;Min_cycle;Max_cycle;Signal;HPM_P1;HPM_P2
2021/12/23 00:01:06;;;;;;;;;;;1.10;92.20;;;;;;5104884;28;19923;-69
2021/12/23 00:03:31;;;;;;;;;;;1.10;92.20;;;;;;5091181;28;20685;-69
2021/12/23 00:05:57;;;;;;;;;;;1.10;92.30;;;;;;5095581;28;19908;-69
2021/12/23 00:08:23;;;;;;;;;;;1.10;92.20;;;;;;5089015;28;19960;-69
2021/12/23 00:10:48;;;;;;;;;;;1.20;92.20;;;;;;5094687;28;19911;-69
2021/12/23 00:13:14;;;;;;;;;;;1.10;92.20;;;;;;5092091;28;19920;-69
2021/12/23 00:16:02;;;;;;;;;;;1.10;92.20;;;;;;5096709;28;20308;-69
2021/12/23 00:23:45;;;;;;;;;;;1.10;92.20;;;;;;5086626;28;19923;-69
2021/12/23 00:26:10;;;;;;;;;;;1.10;92.20;;;;;;5085022;28;19916;-69
2021/12/23 00:28:36;;;;;;;;;;;1.10;92.20;;;;;;5088018;28;19947;-69
2021/12/23 00:31:02;;;;;;;;;;;1.10;92.30;;;;;;5097302;28;19995;-69
2021/12/23 00:33:28;;;;;;;;;;;1.10;92.30;;;;;;5093685;28;19999;-69
2021/12/23 00:35:54;;;;;;;;;;;1.10;92.20;;;;;;5102479;28;20269;-69
2021/12/23 00:38:31;;;;;;;;;;;1.10;92.20;;;;;;5092986;28;19916;-70
2021/12/23 00:41:01;;;;;;;;;;;1.10;92.20;;;;;;5088398;28;19916;-69
2021/12/23 00:43:27;;;;;;;;;;;1.10;92.20;;;;;;5092489;28;20011;-69
2021/12/23 00:45:53;;;;;;;;;;;1.10;92.20;;;;;;5081697;28;19989;-69
2021/12/23 00:48:18;;;;;;;;;;;1.10;92.20;;;;;;5093932;28;19912;-69
2021/12/23 00:50:44;;;;;;;;;;;1.20;92.20;;;;;;5082103;28;20491;-69
2021/12/23 00:53:12;;;;;;;;;;;1.20;92.20;;;;;;5095562;28;19916;-69
2021/12/23 00:55:38;;;;;;;;;;;1.20;92.20;;;;;;5090844;28;20488;-69
2021/12/23 00:58:03;;;;;;;;;;;1.20;92.20;;;;;;5090083;28;19924;-69
2021/12/23 01:00:29;;;;;;;;;;;1.20;92.20;;;;;;5100954;28;20625;-69
2021/12/23 01:02:55;;;;;;;;;;;1.20;92.20;;;;;;5095152;28;19972;-69
2021/12/23 01:05:21;;;;;;;;;;;1.20;92.10;;;;;;5093636;28;19912;-69
2021/12/23 01:07:48;;;;;;;;;;;1.20;92.10;;;;;;5094087;28;19915;-69
2021/12/23 01:10:13;;;;;;;;;;;1.20;92.10;;;;;;5091844;28;19947;-69
2021/12/23 01:12:45;;;;;;;;;;;1.20;92.20;;;;;;5092126;28;20426;-69
2021/12/23 01:17:54;;;;;;;;;;;1.20;92.10;;;;;;5088829;28;19927;-69
2021/12/23 01:20:28;;;;;;;;;;;1.20;92.10;;;;;;5092618;28;20368;-69
2021/12/23 01:23:13;;;;;;;;;;;1.20;92.30;;;;;;5092286;28;19921;-69
2021/12/23 01:25:39;;;;;;;;;;;1.20;92.10;;;;;;5087227;28;19923;-69
2021/12/23 01:28:06;;;;;;;;;;;1.20;92.10;;;;;;5087629;28;20261;-69
2021/12/23 01:30:32;;;;;;;;;;;1.20;92.00;;;;;;5083628;28;19935;-69
2021/12/23 01:32:57;;;;;;;;;;;1.30;92.10;;;;;;5092123;28;19982;-70
2021/12/23 01:35:25;;;;;;;;;;;1.30;92.00;;;;;;5110042;28;19907;-69
2021/12/23 01:37:50;;;;;;;;;;;1.30;92.00;;;;;;5089071;28;20073;-69
2021/12/23 01:40:17;;;;;;;;;;;1.30;92.00;;;;;;5088543;28;20015;-69
2021/12/23 01:42:43;;;;;;;;;;;1.30;92.00;;;;;;5087891;28;20310;-69
2021/12/23 01:45:13;;;;;;;;;;;1.30;92.00;;;;;;5085017;28;19954;-69
2021/12/23 01:47:39;;;;;;;;;;;1.30;92.00;;;;;;5085482;28;19908;-69
2021/12/23 01:50:06;;;;;;;;;;;1.30;92.00;;;;;;5124781;27;19919;-69
2021/12/23 01:52:31;;;;;;;;;;;1.30;92.00;;;;;;5090887;28;19912;-70
2021/12/23 01:54:57;;;;;;;;;;;1.30;92.00;;;;;;5088489;28;19915;-69
2021/12/23 01:57:23;;;;;;;;;;;1.30;92.00;;;;;;5091099;28;19916;-69
2021/12/23 01:59:48;;;;;;;;;;;1.30;92.00;;;;;;5091092;28;19918;-70
2021/12/23 02:02:14;;;;;;;;;;;1.30;92.00;;;;;;5094523;28;19912;-69
2021/12/23 02:04:39;;;;;;;;;;;1.30;92.00;;;;;;5094705;28;20456;-69
2021/12/23 02:07:05;;;;;;;;;;;1.30;92.00;;;;;;5094747;28;20360;-69
2021/12/23 02:09:30;;;;;;;;;;;1.30;92.00;;;;;;5089950;28;19968;-69
2021/12/23 02:11:56;;;;;;;;;;;1.30;92.00;;;;;;5086224;28;20268;-69
2021/12/23 02:14:22;;;;;;;;;;;1.30;92.00;;;;;;5094233;28;19920;-69
2021/12/23 02:16:48;;;;;;;;;;;1.30;92.00;;;;;;5092569;28;19916;-69
2021/12/23 02:19:17;;;;;;;;;;;1.30;92.00;;;;;;5098871;28;19981;-69
2021/12/23 02:21:44;;;;;;;;;;;1.30;91.90;;;;;;5125283;27;19912;-69
2021/12/23 02:24:09;;;;;;;;;;;1.30;91.90;;;;;;5094751;28;19916;-69
2021/12/23 02:26:38;;;;;;;;;;;1.30;92.00;;;;;;5098032;28;20493;-69
2021/12/23 02:29:04;;;;;;;;;;;1.30;92.00;;;;;;5095477;28;20042;-69
2021/12/23 02:31:29;;;;;;;;;;;1.30;92.30;;;;;;5102506;28;20057;-70
2021/12/23 02:33:55;;;;;;;;;;;1.30;92.00;;;;;;5090434;28;20403;-69
2021/12/23 02:36:20;;;;;;;;;;;1.30;92.00;;;;;;5091383;28;20254;-69
2021/12/23 02:38:46;;;;;;;;;;;1.30;92.00;;;;;;5093738;28;20528;-69
2021/12/23 02:41:11;;;;;;;;;;;1.30;92.00;;;;;;5087884;28;20511;-69
2021/12/23 02:43:37;;;;;;;;;;;1.30;92.00;;;;;;5091049;28;19916;-69
2021/12/23 02:46:02;;;;;;;;;;;1.30;92.00;;;;;;5094501;28;19912;-69
2021/12/23 02:48:31;;;;;;;;;;;1.30;92.00;;;;;;5094402;28;20356;-70
2021/12/23 02:50:57;;;;;;;;;;;1.30;92.00;;;;;;5101077;28;19933;-69
2021/12/23 02:53:23;;;;;;;;;;;1.30;92.00;;;;;;5090122;28;20372;-69
2021/12/23 02:55:49;;;;;;;;;;;1.30;92.00;;;;;;5091182;28;20007;-69
2021/12/23 02:58:15;;;;;;;;;;;1.30;92.00;;;;;;5089307;28;19919;-69
2021/12/23 03:00:41;;;;;;;;;;;1.30;92.00;;;;;;5085973;28;19916;-69
2021/12/23 03:03:07;;;;;;;;;;;1.30;92.00;;;;;;5091787;28;20344;-69
2021/12/23 03:05:32;;;;;;;;;;;1.30;92.00;;;;;;5083906;28;19923;-69
2021/12/23 03:07:58;;;;;;;;;;;1.30;92.00;;;;;;5092112;28;19908;-69
2021/12/23 03:10:24;;;;;;;;;;;1.40;92.10;;;;;;5089187;28;20452;-69
2021/12/23 03:12:50;;;;;;;;;;;1.40;92.10;;;;;;5088308;28;20003;-69
2021/12/23 03:15:15;;;;;;;;;;;1.40;92.10;;;;;;5090324;28;20009;-69
2021/12/23 03:17:41;;;;;;;;;;;1.40;92.00;;;;;;5087503;28;19999;-69
2021/12/23 03:20:07;;;;;;;;;;;1.40;92.10;;;;;;5088668;28;20351;-69
2021/12/23 03:22:32;;;;;;;;;;;1.40;92.10;;;;;;5090878;28;19909;-70
2021/12/23 03:24:58;;;;;;;;;;;1.40;92.00;;;;;;5070858;28;19920;-69
2021/12/23 03:27:23;;;;;;;;;;;1.40;92.00;;;;;;5088585;28;19916;-69
2021/12/23 03:29:49;;;;;;;;;;;1.40;92.00;;;;;;5089936;28;19999;-69
2021/12/23 03:32:14;;;;;;;;;;;1.40;92.10;;;;;;5103232;28;19970;-69
2021/12/23 03:34:40;;;;;;;;;;;1.40;92.10;;;;;;5082761;28;20608;-69
2021/12/23 03:37:06;;;;;;;;;;;1.40;92.00;;;;;;5090154;28;19933;-70
2021/12/23 03:39:31;;;;;;;;;;;1.40;92.00;;;;;;5081835;28;20010;-69
2021/12/23 03:41:57;;;;;;;;;;;1.50;92.10;;;;;;5087767;28;19916;-69
2021/12/23 03:44:22;;;;;;;;;;;1.50;92.10;;;;;;5086038;28;20010;-69
2021/12/23 03:46:48;;;;;;;;;;;1.50;92.10;;;;;;5087105;28;20010;-69
2021/12/23 03:49:13;;;;;;;;;;;1.50;92.10;;;;;;5098687;28;19966;-69
2021/12/23 03:51:39;;;;;;;;;;;1.50;92.10;;;;;;5088517;28;19970;-69
2021/12/23 03:54:04;;;;;;;;;;;1.50;92.10;;;;;;5095583;28;19959;-69
2021/12/23 03:56:30;;;;;;;;;;;1.50;92.20;;;;;;5093054;28;19919;-69
2021/12/23 03:58:55;;;;;;;;;;;1.50;92.20;;;;;;5090124;28;20329;-69
2021/12/23 04:01:23;;;;;;;;;;;1.50;92.10;;;;;;5087616;28;20300;-69
2021/12/23 04:03:50;;;;;;;;;;;1.50;92.20;;;;;;5094638;28;19920;-70
2021/12/23 04:06:15;;;;;;;;;;;1.50;92.20;;;;;;5091455;28;19920;-69
2021/12/23 04:08:41;;;;;;;;;;;1.50;92.20;;;;;;5100877;28;20311;-69
2021/12/23 04:11:06;;;;;;;;;;;1.50;92.20;;;;;;5093900;28;19913;-69
2021/12/23 04:13:32;;;;;;;;;;;1.50;92.20;;;;;;5095462;28;20431;-69
2021/12/23 04:15:57;;;;;;;;;;;1.50;92.20;;;;;;5104401;28;19927;-69
2021/12/23 04:18:23;;;;;;;;;;;1.40;92.20;;;;;;5093161;28;19955;-69
2021/12/23 04:20:54;;;;;;;;;;;1.40;92.20;;;;;;5093515;28;19916;-69
2021/12/23 04:23:24;;;;;;;;;;;1.40;92.20;;;;;;5091796;28;19916;-70
2021/12/23 04:25:50;;;;;;;;;;;1.50;92.20;;;;;;5100470;28;19939;-69
2021/12/23 04:28:16;;;;;;;;;;;1.40;92.20;;;;;;5088702;28;20320;-69
2021/12/23 04:30:42;;;;;;;;;;;1.40;92.30;;;;;;5085553;28;19920;-69
2021/12/23 04:33:07;;;;;;;;;;;1.40;92.30;;;;;;5086326;28;19916;-69
2021/12/23 04:35:33;;;;;;;;;;;1.40;92.30;;;;;;5089092;28;19916;-69
2021/12/23 04:37:58;;;;;;;;;;;1.40;92.30;;;;;;5090259;28;19912;-69
2021/12/23 04:40:24;;;;;;;;;;;1.40;92.30;;;;;;5088758;28;20459;-70
2021/12/23 04:42:50;;;;;;;;;;;1.40;92.30;;;;;;5097497;28;19911;-69
2021/12/23 04:45:15;;;;;;;;;;;1.40;92.30;;;;;;5097299;28;19930;-69
2021/12/23 04:47:41;;;;;;;;;;;1.40;92.30;;;;;;5092576;28;20003;-69
2021/12/23 04:50:08;;;;;;;;;;;1.40;92.30;;;;;;5100185;28;19918;-69
2021/12/23 04:52:34;;;;;;;;;;;1.40;92.30;;;;;;5096408;28;20006;-69
2021/12/23 04:54:59;;;;;;;;;;;1.40;92.30;;;;;;5105878;28;20321;-69
2021/12/23 04:57:25;;;;;;;;;;;1.30;92.30;;;;;;5094169;28;19919;-69
2021/12/23 04:59:50;;;;;;;;;;;1.40;92.30;;;;;;5103748;28;19929;-69
2021/12/23 05:02:16;;;;;;;;;;;1.40;92.30;;;;;;5089844;28;19912;-69
2021/12/23 05:04:41;;;;;;;;;;;1.30;92.30;;;;;;5091721;28;20049;-69
2021/12/23 05:07:07;;;;;;;;;;;1.30;92.30;;;;;;5089354;28;19936;-69
2021/12/23 05:09:32;;;;;;;;;;;1.30;92.30;;;;;;5098973;28;20405;-69
2021/12/23 05:11:58;;;;;;;;;;;1.30;92.30;;;;;;5094053;28;19916;-69
2021/12/23 05:14:23;;;;;;;;;;;1.30;92.30;;;;;;5091332;28;19951;-69
2021/12/23 05:16:49;;;;;;;;;;;1.30;92.30;;;;;;5092662;28;19916;-69
2021/12/23 05:19:14;;;;;;;;;;;1.30;92.30;;;;;;5091165;28;19962;-69
2021/12/23 05:21:40;;;;;;;;;;;1.30;92.30;;;;;;5092637;28;20487;-69
2021/12/23 05:24:05;;;;;;;;;;;1.30;92.30;;;;;;5092099;28;19912;-69
2021/12/23 05:26:31;;;;;;;;;;;1.30;92.30;;;;;;5104126;27;19923;-69
2021/12/23 05:28:56;;;;;;;;;;;1.20;92.30;;;;;;5078103;28;19915;-69
2021/12/23 05:31:22;;;;;;;;;;;1.30;92.30;;;;;;5093761;28;19919;-69
2021/12/23 05:33:47;;;;;;;;;;;1.20;92.30;;;;;;5083549;28;19947;-69
2021/12/23 05:36:13;;;;;;;;;;;1.20;92.30;;;;;;5089954;28;19915;-69
2021/12/23 05:38:38;;;;;;;;;;;1.20;92.30;;;;;;5086051;28;19914;-69
2021/12/23 05:41:04;;;;;;;;;;;1.20;92.30;;;;;;5090741;28;19969;-69
2021/12/23 05:43:29;;;;;;;;;;;1.30;92.30;;;;;;5098003;28;19926;-69
2021/12/23 05:45:55;;;;;;;;;;;1.20;92.20;;;;;;5090444;28;20002;-69
2021/12/23 05:48:20;;;;;;;;;;;1.30;92.20;;;;;;5100420;28;19924;-69
2021/12/23 05:50:46;;;;;;;;;;;1.30;92.20;;;;;;5095818;28;19912;-69
2021/12/23 05:53:11;;;;;;;;;;;1.30;92.20;;;;;;5102084;28;19973;-69
2021/12/23 05:55:37;;;;;;;;;;;1.30;92.20;;;;;;5090912;28;19912;-69
2021/12/23 05:58:02;;;;;;;;;;;1.30;92.20;;;;;;5085721;28;19913;-70
2021/12/23 06:00:30;;;;;;;;;;;1.30;92.20;;;;;;5085921;28;20376;-69
2021/12/23 06:02:56;;;;;;;;;;;1.30;92.20;;;;;;5089690;28;20427;-69
2021/12/23 06:05:22;;;;;;;;;;;1.30;92.20;;;;;;5088730;28;19951;-69
2021/12/23 06:07:48;;;;;;;;;;;1.30;92.20;;;;;;5094860;28;19912;-69
2021/12/23 06:10:14;;;;;;;;;;;1.30;92.20;;;;;;5096806;27;19912;-69
2021/12/23 06:12:40;;;;;;;;;;;1.30;92.20;;;;;;5090811;28;20402;-69
2021/12/23 06:15:06;;;;;;;;;;;1.30;92.20;;;;;;5094074;28;19938;-69
2021/12/23 06:17:32;;;;;;;;;;;1.30;92.20;;;;;;5086700;28;19962;-69
2021/12/23 06:19:57;;;;;;;;;;;1.30;92.20;;;;;;5095303;28;20010;-69
2021/12/23 06:22:23;;;;;;;;;;;1.30;92.20;;;;;;5095269;28;19965;-69
2021/12/23 06:24:49;;;;;;;;;;;1.40;92.20;;;;;;5091391;28;19920;-69
2021/12/23 06:27:16;;;;;;;;;;;1.40;92.20;;;;;;5092804;28;19908;-69
2021/12/23 06:29:41;;;;;;;;;;;1.40;92.20;;;;;;5093625;28;19923;-69
2021/12/23 06:32:07;;;;;;;;;;;1.40;92.20;;;;;;5089489;28;20285;-69
2021/12/23 06:34:32;;;;;;;;;;;1.40;92.20;;;;;;5121716;27;19927;-69
2021/12/23 06:36:58;;;;;;;;;;;1.40;92.20;;;;;;5089914;28;19912;-70
2021/12/23 06:39:24;;;;;;;;;;;1.40;92.20;;;;;;5090365;28;19911;-69
2021/12/23 06:41:49;;;;;;;;;;;1.40;92.20;;;;;;5088072;28;19911;-69
2021/12/23 06:44:15;;;;;;;;;;;1.40;92.20;;;;;;5091480;28;19924;-69
2021/12/23 06:46:40;;;;;;;;;;;1.40;92.20;;;;;;5087323;28;19935;-69
2021/12/23 06:49:06;;;;;;;;;;;1.40;92.40;;;;;;5091240;28;19977;-69
2021/12/23 06:51:32;;;;;;;;;;;1.40;92.20;;;;;;5087504;28;19935;-70
2021/12/23 06:53:59;;;;;;;;;;;1.40;92.20;;;;;;5087291;28;19920;-69
2021/12/23 06:56:25;;;;;;;;;;;1.40;92.20;;;;;;5089996;27;20261;-69
2021/12/23 06:58:50;;;;;;;;;;;1.50;92.20;;;;;;5089274;28;19912;-69
2021/12/23 07:01:18;;;;;;;;;;;1.40;92.20;;;;;;5091629;28;20269;-69
2021/12/23 07:06:30;;;;;;;;;;;1.40;92.20;;;;;;5090020;28;19914;-69
2021/12/23 07:08:56;;;;;;;;;;;1.40;92.20;;;;;;5088995;28;19913;-70
2021/12/23 07:11:21;;;;;;;;;;;1.40;92.20;;;;;;5090377;28;19926;-70
2021/12/23 07:13:47;;;;;;;;;;;1.50;92.20;;;;;;5090817;28;19927;-69
2021/12/23 07:16:12;;;;;;;;;;;1.40;92.20;;;;;;5088567;28;19915;-69
2021/12/23 07:18:38;;;;;;;;;;;1.40;92.20;;;;;;5089449;28;20310;-70
2021/12/23 07:21:04;;;;;;;;;;;1.50;92.20;;;;;;5089762;28;20373;-70
2021/12/23 07:23:29;;;;;;;;;;;1.40;92.20;;;;;;5087588;28;20002;-70
2021/12/23 07:25:55;;;;;;;;;;;1.40;92.20;;;;;;5088590;28;19954;-69
2021/12/23 07:28:20;;;;;;;;;;;1.50;92.20;;;;;;5086740;28;19916;-69
2021/12/23 07:30:45;;;;;;;;;;;1.40;92.20;;;;;;5091391;28;19920;-70
2021/12/23 07:33:11;;;;;;;;;;;1.50;92.20;;;;;;5089144;28;19908;-70
2021/12/23 07:35:36;;;;;;;;;;;1.50;92.20;;;;;;5087543;28;19920;-69
2021/12/23 07:38:02;;;;;;;;;;;1.50;92.20;;;;;;5091296;28;19920;-70
2021/12/23 07:40:29;;;;;;;;;;;1.40;92.20;;;;;;5093973;28;19913;-70
2021/12/23 07:42:56;;;;;;;;;;;1.50;92.20;;;;;;5088458;28;19998;-69
2021/12/23 07:45:24;;;;;;;;;;;1.50;92.20;;;;;;5089211;28;19938;-70
2021/12/23 07:47:49;;;;;;;;;;;1.50;92.20;;;;;;5086072;28;19958;-70
2021/12/23 07:50:15;;;;;;;;;;;1.50;92.20;;;;;;5091551;28;19955;-70
2021/12/23 07:52:40;;;;;;;;;;;1.50;92.20;;;;;;5098882;28;20307;-70
2021/12/23 07:55:06;;;;;;;;;;;1.50;92.20;;;;;;5092562;28;20395;-69
2021/12/23 07:57:31;;;;;;;;;;;1.50;92.20;;;;;;5098566;28;19937;-70
2021/12/23 07:59:58;;;;;;;;;;;1.50;92.20;;;;;;5098474;28;20395;-69
2021/12/23 08:02:24;;;;;;;;;;;1.50;92.20;;;;;;5098121;28;20040;-69
2021/12/23 08:04:50;;;;;;;;;;;1.50;92.20;;;;;;5097567;28;20378;-69
2021/12/23 08:07:15;;;;;;;;;;;1.50;92.20;;;;;;5086057;28;19911;-70
2021/12/23 08:09:41;;;;;;;;;;;1.50;92.20;;;;;;5099209;28;19920;-69
2021/12/23 08:12:08;;;;;;;;;;;1.50;92.20;;;;;;5091482;28;19915;-69
2021/12/23 08:14:34;;;;;;;;;;;1.50;92.20;;;;;;5102243;28;19919;-70
2021/12/23 08:16:59;;;;;;;;;;;1.50;92.20;;;;;;5089196;28;19912;-69
2021/12/23 08:19:25;;;;;;;;;;;1.50;92.20;;;;;;5093734;28;21455;-69
2021/12/23 08:21:50;;;;;;;;;;;1.60;92.50;;;;;;5088600;28;20003;-69
2021/12/23 08:24:16;;;;;;;;;;;1.50;92.20;;;;;;5095732;28;19977;-69
2021/12/23 08:26:50;;;;;;;;;;;1.60;92.20;;;;;;5093944;28;20002;-69
2021/12/23 08:29:18;;;;;;;;;;;1.60;92.20;;;;;;5092868;28;19918;-69
2021/12/23 08:31:43;;;;;;;;;;;1.60;92.20;;;;;;5083287;28;20300;-70
2021/12/23 08:34:09;;;;;;;;;;;1.60;92.20;;;;;;5083613;28;19920;-69
2021/12/23 08:36:35;;;;;;;;;;;1.60;92.20;;;;;;5084667;28;19982;-69
2021/12/23 08:39:01;;;;;;;;;;;1.60;92.20;;;;;;5086127;28;20014;-69
2021/12/23 08:41:26;;;;;;;;;;;1.60;92.20;;;;;;5090085;28;20380;-69
2021/12/23 08:43:52;;;;;;;;;;;1.60;92.20;;;;;;5083530;28;19931;-69
2021/12/23 08:46:17;;;;;;;;;;;1.70;92.10;;;;;;5095888;28;19918;-70
2021/12/23 08:48:43;;;;;;;;;;;1.70;92.10;;;;;;5080683;28;19922;-69
2021/12/23 08:51:08;;;;;;;;;;;1.70;92.10;;;;;;5090823;28;20019;-69
2021/12/23 08:53:34;;;;;;;;;;;1.70;92.10;;;;;;5087944;28;19989;-69
2021/12/23 08:55:59;;;;;;;;;;;1.70;92.10;;;;;;5084405;28;20387;-70
2021/12/23 08:58:25;;;;;;;;;;;1.80;92.10;;;;;;5080062;28;20381;-69
2021/12/23 09:00:50;;;;;;;;;;;1.70;92.10;;;;;;5087699;28;20380;-69
2021/12/23 09:03:16;;;;;;;;;;;1.80;92.10;;;;;;5088716;28;19912;-70
2021/12/23 09:05:42;;;;;;;;;;;1.80;92.10;;;;;;5084468;28;20594;-69
2021/12/23 09:08:09;;;;;;;;;;;1.80;92.10;;;;;;5084892;28;19995;-69
2021/12/23 09:10:35;;;;;;;;;;;1.80;92.10;;;;;;5087231;28;19961;-69
2021/12/23 09:13:01;;;;;;;;;;;1.80;92.00;;;;;;5093816;28;19923;-69
2021/12/23 09:15:26;;;;;;;;;;;1.90;92.00;;;;;;5084332;28;20408;-70
2021/12/23 09:17:52;;;;;;;;;;;1.90;92.00;;;;;;5082014;28;19916;-70
2021/12/23 09:20:19;;;;;;;;;;;1.90;92.00;;;;;;5084184;28;19916;-69
2021/12/23 09:22:46;;;;;;;;;;;1.90;92.00;;;;;;5087186;28;19930;-69
2021/12/23 09:25:19;;;;;;;;;;;1.90;91.90;;;;;;5083326;28;19916;-70
2021/12/23 09:33:21;;;;;;;;;;;2.00;91.80;;;;;;5081342;28;20050;-69
2021/12/23 09:35:47;;;;;;;;;;;2.00;91.80;;;;;;5084073;28;20002;-69
2021/12/23 09:38:13;;;;;;;;;;;2.10;91.80;;;;;;5085501;28;19912;-69
2021/12/23 09:40:39;;;;;;;;;;;2.10;91.70;;;;;;5086730;28;20257;-69
2021/12/23 09:43:06;;;;;;;;;;;2.10;91.70;;;;;;5081466;28;19923;-69
2021/12/23 09:45:32;;;;;;;;;;;2.20;91.70;;;;;;5089334;28;19912;-69
2021/12/23 09:48:01;;;;;;;;;;;2.20;91.70;;;;;;5078818;28;20273;-69
2021/12/23 09:50:27;;;;;;;;;;;2.20;91.70;;;;;;5088283;28;19913;-69
2021/12/23 09:52:53;;;;;;;;;;;2.20;91.70;;;;;;5090928;28;19923;-69
2021/12/23 09:55:23;;;;;;;;;;;2.30;91.70;;;;;;5092294;28;19912;-69
2021/12/23 09:57:50;;;;;;;;;;;2.30;91.70;;;;;;5096732;28;19936;-69
2021/12/23 10:00:17;;;;;;;;;;;2.30;91.90;;;;;;5089705;28;19924;-69
2021/12/23 10:02:42;;;;;;;;;;;2.30;91.70;;;;;;5103912;28;19917;-69
2021/12/23 10:05:09;;;;;;;;;;;2.40;91.70;;;;;;5090389;28;19927;-69
2021/12/23 10:07:35;;;;;;;;;;;2.40;91.60;;;;;;5078424;28;19912;-69
2021/12/23 10:10:09;;;;;;;;;;;2.40;91.60;;;;;;5086280;28;19945;-69
2021/12/23 10:31:52;;;;;;;;;;;2.50;91.80;;;;;;5085239;28;19919;-69
2021/12/23 10:39:39;;;;;;;;;;;2.60;91.80;;;;;;5087193;28;19996;-69
2021/12/23 10:42:09;;;;;;;;;;;2.60;91.80;;;;;;5082660;28;19912;-69
2021/12/23 10:44:35;;;;;;;;;;;2.70;91.80;;;;;;5084082;28;19971;-69
2021/12/23 10:47:00;;;;;;;;;;;2.70;91.80;;;;;;5087396;28;20345;-69
2021/12/23 10:49:40;;;;;;;;;;;2.70;91.80;;;;;;5089213;28;19919;-69
2021/12/23 10:52:19;;;;;;;;;;;2.70;91.80;;;;;;5085123;28;20045;-69
2021/12/23 11:00:15;;;;;;;;;;;2.80;91.90;;;;;;5089429;28;19958;-69
2021/12/23 11:02:55;;;;;;;;;;;2.90;91.60;;;;;;5088828;28;19999;-69
2021/12/23 11:05:26;;;;;;;;;;;2.90;91.60;;;;;;5090902;28;19965;-69
2021/12/23 11:10:42;;;;;;;;;;;3.00;91.50;;;;;;5090367;28;19908;-69
2021/12/23 11:37:49;;;;;;;;;;;3.30;91.30;;;;;;5081040;28;20295;-69
2021/12/23 11:40:38;;;;;;;;;;;3.30;91.30;;;;;;5089067;28;19990;-69
2021/12/23 11:43:24;;;;;;;;;;;3.40;91.30;;;;;;5089555;28;19919;-69
2021/12/23 11:45:49;;;;;;;;;;;3.40;91.40;;;;;;5087326;28;19923;-69
2021/12/23 11:48:15;;;;;;;;;;;3.40;91.30;;;;;;5088304;28;19916;-69
2021/12/23 11:50:53;;;;;;;;;;;3.50;91.40;;;;;;5084920;28;19916;-69
2021/12/23 11:53:20;;;;;;;;;;;3.50;91.30;;;;;;5084602;28;19916;-69
2021/12/23 11:55:45;;;;;;;;;;;3.50;91.40;;;;;;5079011;28;19908;-69
2021/12/23 11:58:13;;;;;;;;;;;3.50;91.30;;;;;;5090213;28;19920;-69
2021/12/23 12:00:42;;;;;;;;;;;3.50;91.30;;;;;;5101814;28;19916;-69
2021/12/23 12:03:09;;;;;;;;;;;3.50;91.30;;;;;;5090265;28;19913;-69
2021/12/23 12:05:35;;;;;;;;;;;3.60;91.30;;;;;;5095824;28;20014;-69
2021/12/23 12:08:23;;;;;;;;;;;3.60;91.30;;;;;;5084144;28;19920;-69
2021/12/23 12:10:49;;;;;;;;;;;3.60;91.40;;;;;;5102726;28;19916;-69
2021/12/23 12:13:16;;;;;;;;;;;3.70;91.30;;;;;;5083992;28;20380;-70
2021/12/23 12:15:47;;;;;;;;;;;3.70;91.20;;;;;;5102305;28;19916;-69
2021/12/23 12:18:14;;;;;;;;;;;3.80;91.30;;;;;;5086381;28;19920;-70
2021/12/23 12:20:47;;;;;;;;;;;3.80;91.20;;;;;;5086713;28;19912;-70
2021/12/23 12:23:14;;;;;;;;;;;3.80;91.30;;;;;;5083373;28;19920;-70
2021/12/23 12:25:47;;;;;;;;;;;3.80;91.30;;;;;;5087735;28;20102;-69
2021/12/23 12:28:23;;;;;;;;;;;3.80;91.30;;;;;;5083971;28;19920;-69
2021/12/23 12:30:51;;;;;;;;;;;3.80;91.30;;;;;;5084459;28;19915;-70
2021/12/23 12:33:19;;;;;;;;;;;3.90;91.40;;;;;;5084888;28;19920;-70
2021/12/23 12:36:06;;;;;;;;;;;3.90;91.30;;;;;;5088742;28;19923;-69
2021/12/23 12:38:31;;;;;;;;;;;3.90;91.30;;;;;;5090350;28;19923;-69
2021/12/23 12:40:57;;;;;;;;;;;3.90;91.40;;;;;;5081493;28;20262;-69
2021/12/23 12:43:31;;;;;;;;;;;3.90;91.40;;;;;;5087832;28;19923;-69
2021/12/23 12:45:56;;;;;;;;;;;3.90;91.30;;;;;;5088628;27;19912;-69
2021/12/23 12:48:22;;;;;;;;;;;4.00;91.40;;;;;;5086721;28;19958;-69
2021/12/23 12:50:51;;;;;;;;;;;4.00;91.50;;;;;;5080671;28;19912;-69
2021/12/23 12:53:19;;;;;;;;;;;4.00;91.40;;;;;;5087159;28;19938;-69
2021/12/23 12:55:48;;;;;;;;;;;4.00;91.50;;;;;;5085717;28;19912;-69
2021/12/23 12:58:14;;;;;;;;;;;4.00;91.40;;;;;;5098796;27;19923;-69
2021/12/23 13:00:42;;;;;;;;;;;4.10;91.50;;;;;;5084618;28;19916;-69
2021/12/23 13:03:22;;;;;;;;;;;4.10;91.50;;;;;;5088026;28;20418;-69
2021/12/23 13:05:50;;;;;;;;;;;4.10;91.60;;;;;;5089054;28;20010;-69
2021/12/23 13:08:19;;;;;;;;;;;4.10;91.50;;;;;;5090097;28;19947;-69
2021/12/23 13:10:48;;;;;;;;;;;4.10;91.50;;;;;;5084261;28;19908;-69
2021/12/23 13:13:32;;;;;;;;;;;4.10;91.50;;;;;;5086368;28;19920;-69
2021/12/23 13:16:02;;;;;;;;;;;4.20;91.60;;;;;;5087329;28;19939;-69
2021/12/23 13:18:28;;;;;;;;;;;4.20;91.60;;;;;;5089361;28;19928;-69
2021/12/23 13:20:55;;;;;;;;;;;4.20;91.50;;;;;;5085415;28;19923;-69
2021/12/23 13:23:29;;;;;;;;;;;4.20;91.60;;;;;;5087085;28;19954;-70
2021/12/23 13:25:55;;;;;;;;;;;4.20;91.60;;;;;;5098064;27;19943;-69
2021/12/23 13:28:34;;;;;;;;;;;4.20;91.70;;;;;;5100364;27;20633;-69
2021/12/23 13:31:00;;;;;;;;;;;4.30;92.00;;;;;;5099822;27;19912;-69
2021/12/23 13:33:26;;;;;;;;;;;4.30;91.60;;;;;;5091587;28;20016;-69
2021/12/23 13:35:51;;;;;;;;;;;4.30;91.60;;;;;;5085666;28;19916;-69
2021/12/23 13:38:29;;;;;;;;;;;4.30;92.00;;;;;;5090540;28;20421;-69
2021/12/23 13:40:54;;;;;;;;;;;4.30;91.80;;;;;;5089105;28;19920;-69
2021/12/23 13:43:31;;;;;;;;;;;4.40;91.80;;;;;;5086414;28;19973;-69
2021/12/23 13:46:06;;;;;;;;;;;4.40;91.70;;;;;;5080948;28;19927;-69
2021/12/23 13:48:31;;;;;;;;;;;4.40;92.00;;;;;;5084735;28;19921;-69
2021/12/23 13:50:58;;;;;;;;;;;4.40;91.70;;;;;;5085775;28;19908;-69
2021/12/23 13:53:24;;;;;;;;;;;4.50;91.80;;;;;;5090184;28;20682;-69
2021/12/23 13:55:50;;;;;;;;;;;4.50;91.80;;;;;;5084111;28;19971;-69
2021/12/23 13:58:25;;;;;;;;;;;4.50;91.80;;;;;;5090321;28;19935;-69
2021/12/23 14:00:50;;;;;;;;;;;4.50;91.70;;;;;;5074989;28;20365;-69
2021/12/23 14:03:18;;;;;;;;;;;4.50;91.80;;;;;;5086595;28;19927;-69
2021/12/23 14:05:49;;;;;;;;;;;4.50;91.90;;;;;;5082870;28;20265;-69
2021/12/23 14:08:16;;;;;;;;;;;4.50;91.80;;;;;;5087845;28;19911;-69
2021/12/23 14:10:43;;;;;;;;;;;4.50;91.90;;;;;;5087946;28;19943;-69
2021/12/23 14:13:10;;;;;;;;;;;4.50;92.00;;;;;;5102977;27;19920;-69
2021/12/23 14:15:37;;;;;;;;;;;4.60;92.20;;;;;;5087262;28;20014;-69
2021/12/23 14:18:09;;;;;;;;;;;4.60;92.20;;;;;;5088400;28;19977;-69
2021/12/23 14:23:25;;;;;;;;;;;4.60;92.20;;;;;;5085912;28;19927;-69
2021/12/23 14:25:59;;;;;;;;;;;4.60;92.40;;;;;;5087752;28;19923;-69
2021/12/23 14:28:29;;;;;;;;;;;4.60;92.60;;;;;;5088258;28;20622;-69
2021/12/23 14:30:55;;;;;;;;;;;4.60;92.60;;;;;;5086630;28;20373;-69
2021/12/23 14:33:23;;;;;;;;;;;4.60;92.80;;;;;;5084471;28;19985;-69
2021/12/23 14:35:56;;;;;;;;;;;4.60;92.60;;;;;;5077920;28;19951;-69
2021/12/23 14:38:26;;;;;;;;;;;4.60;92.70;;;;;;5087790;28;19916;-69
2021/12/23 14:41:02;;;;;;;;;;;4.60;92.70;;;;;;5082356;28;19919;-69
2021/12/23 14:43:43;;;;;;;;;;;4.60;92.90;;;;;;5086588;28;20357;-70
2021/12/23 14:46:08;;;;;;;;;;;4.60;92.90;;;;;;5081582;28;19967;-69
2021/12/23 14:51:34;;;;;;;;;;;4.60;93.00;;;;;;5083462;28;19955;-69
2021/12/23 14:54:08;;;;;;;;;;;4.60;93.20;;;;;;5087963;28;20005;-69
2021/12/23 14:56:34;;;;;;;;;;;4.60;93.20;;;;;;5089869;28;19916;-69
2021/12/23 14:59:00;;;;;;;;;;;4.60;93.20;;;;;;5085641;28;19920;-69
2021/12/23 15:01:26;;;;;;;;;;;4.60;93.10;;;;;;5092234;28;20391;-69
2021/12/23 15:04:01;;;;;;;;;;;4.60;93.20;;;;;;5080434;28;19917;-69
2021/12/23 15:06:27;;;;;;;;;;;4.60;93.30;;;;;;5092651;28;20504;-69
2021/12/23 15:08:52;;;;;;;;;;;4.60;93.20;;;;;;5085580;28;20006;-69
2021/12/23 15:11:25;;;;;;;;;;;4.60;93.30;;;;;;5089258;28;19920;-69
2021/12/23 15:13:51;;;;;;;;;;;4.60;93.30;;;;;;5085949;28;19919;-69
2021/12/23 15:16:19;;;;;;;;;;;4.60;93.30;;;;;;5088051;28;19916;-69
2021/12/23 15:21:37;;;;;;;;;;;4.60;93.50;;;;;;5084373;28;19951;-69
2021/12/23 15:24:21;;;;;;;;;;;4.60;93.50;;;;;;5089178;28;19924;-69
2021/12/23 15:26:57;;;;;;;;;;;4.60;93.40;;;;;;5088502;28;19912;-69
2021/12/23 15:29:24;;;;;;;;;;;4.60;93.60;;;;;;5093257;28;20546;-69
2021/12/23 15:31:54;;;;;;;;;;;4.60;93.50;;;;;;5096267;28;19930;-69
2021/12/23 15:34:20;;;;;;;;;;;4.60;93.60;;;;;;5088222;28;20341;-70
2021/12/23 15:36:45;;;;;;;;;;;4.60;93.60;;;;;;5092176;28;19924;-69
2021/12/23 15:39:16;;;;;;;;;;;4.60;93.60;;;;;;5090428;28;19916;-69
2021/12/23 15:41:42;;;;;;;;;;;4.60;93.60;;;;;;5090116;28;19916;-69
2021/12/23 15:44:07;;;;;;;;;;;4.60;93.60;;;;;;5086510;28;19938;-69
2021/12/23 15:46:33;;;;;;;;;;;4.60;93.70;;;;;;5085572;28;19916;-69
2021/12/23 15:48:58;;;;;;;;;;;4.60;93.70;;;;;;5096143;28;19908;-69
2021/12/23 15:51:24;;;;;;;;;;;4.60;93.80;;;;;;5085196;28;20599;-69
2021/12/23 15:53:49;;;;;;;;;;;4.60;93.80;;;;;;5086593;28;19919;-69